sensor_id;sensor_type;location;lat;lon;timestamp;pressure;altitude;pressure_sealevel;temperature;humidity
4858;BME280;58975;51.978;8.472;2023-12-14T00:00:03;99583.88;;;4.17;100.00
4858;BME280;58975;51.978;8.472;2023-12-14T00:04:59;99597.13;;;4.16;100.00
4858;BME280;58975;51.978;8.472;2023-12-14T00:09:56;99616.97;;;4.21;100.00
4858;BME280;58975;51.978;8.472;2023-12-14T00:14:52;99616.47;;;4.29;100.00
4858;BME280;58975;51.978;8.472;2023-12-14T00:19:48;99624.06;;;4.34;100.00
4858;BME280;58975;51.978;8.472;2023-12-14T00:24:45;99624.97;;;4.20;100.00
4858;BME280;58975;51.978;8.472;2023-12-14T00:29:42;99627.81;;;4.17;100.00
4858;BME280;58975;51.978;8.472;2023-12-14T00:34:38;99640.56;;;4.10;100.00
4858;BME280;58975;51.978;8.472;2023-12-14T00:39:34;99644.03;;;4.11;100.00
4858;BME280;58975;51.978;8.472;2023-12-14T00:44:31;99649.75;;;4.17;100.00
4858;BME280;58975;51.978;8.472;2023-12-14T00:49:27;99654.88;;;4.06;100.00
4858;BME280;58975;51.978;8.472;2023-12-14T00:54:24;99665.06;;;3.98;100.00
4858;BME280;58975;51.978;8.472;2023-12-14T00:59:21;99677.84;;;4.04;100.00
4858;BME280;58975;51.978;8.472;2023-12-14T01:04:17;99684.94;;;3.90;100.00
4858;BME280;58975;51.978;8.472;2023-12-14T01:09:14;99691.91;;;3.91;100.00
4858;BME280;58975;51.978;8.472;2023-12-14T01:14:10;99692.25;;;3.99;100.00
4858;BME280;58975;51.978;8.472;2023-12-14T01:19:07;99701.41;;;3.93;100.00
4858;BME280;58975;51.978;8.472;2023-12-14T01:24:04;99708.78;;;3.88;100.00
4858;BME280;58975;51.978;8.472;2023-12-14T01:29:01;99717.13;;;3.80;100.00
4858;BME280;58975;51.978;8.472;2023-12-14T01:33:57;99720.81;;;3.78;100.00
4858;BME280;58975;51.978;8.472;2023-12-14T01:38:54;99714.31;;;3.84;100.00
4858;BME280;58975;51.978;8.472;2023-12-14T01:43:50;99738.53;;;3.76;100.00
4858;BME280;58975;51.978;8.472;2023-12-14T01:48:46;99743.69;;;3.63;100.00
4858;BME280;58975;51.978;8.472;2023-12-14T01:53:43;99744.19;;;3.56;100.00
4858;BME280;58975;51.978;8.472;2023-12-14T01:58:39;99772.75;;;3.62;100.00
4858;BME280;58975;51.978;8.472;2023-12-14T02:03:43;99780.94;;;3.57;100.00
4858;BME280;58975;51.978;8.472;2023-12-14T02:08:40;99785.16;;;3.46;100.00
4858;BME280;58975;51.978;8.472;2023-12-14T02:13:36;99786.13;;;3.45;100.00
4858;BME280;58975;51.978;8.472;2023-12-14T02:18:33;99797.56;;;3.44;100.00
4858;BME280;58975;51.978;8.472;2023-12-14T02:23:29;99801.16;;;3.43;100.00
4858;BME280;58975;51.978;8.472;2023-12-14T02:28:26;99808.84;;;3.31;100.00
4858;BME280;58975;51.978;8.472;2023-12-14T02:33:22;99813.72;;;3.38;100.00
4858;BME280;58975;51.978;8.472;2023-12-14T02:38:19;99812.91;;;3.37;100.00
4858;BME280;58975;51.978;8.472;2023-12-14T02:43:15;99822.00;;;3.31;100.00
4858;BME280;58975;51.978;8.472;2023-12-14T02:48:12;99823.25;;;3.40;100.00
4858;BME280;58975;51.978;8.472;2023-12-14T02:53:09;99836.09;;;3.30;100.00
4858;BME280;58975;51.978;8.472;2023-12-14T02:58:05;99830.16;;;3.27;100.00
4858;BME280;58975;51.978;8.472;2023-12-14T03:03:02;99849.91;;;3.34;100.00
4858;BME280;58975;51.978;8.472;2023-12-14T03:07:58;99852.25;;;3.24;100.00
4858;BME280;58975;51.978;8.472;2023-12-14T03:12:55;99840.28;;;3.19;100.00
4858;BME280;58975;51.978;8.472;2023-12-14T03:17:51;99858.44;;;3.23;100.00
4858;BME280;58975;51.978;8.472;2023-12-14T03:22:48;99853.94;;;3.25;100.00
4858;BME280;58975;51.978;8.472;2023-12-14T03:27:44;99866.16;;;3.26;100.00
4858;BME280;58975;51.978;8.472;2023-12-14T03:32:41;99865.00;;;3.16;100.00
4858;BME280;58975;51.978;8.472;2023-12-14T03:37:38;99870.88;;;3.21;100.00
4858;BME280;58975;51.978;8.472;2023-12-14T03:42:35;99887.84;;;3.16;100.00
4858;BME280;58975;51.978;8.472;2023-12-14T03:47:32;99897.19;;;3.21;100.00
4858;BME280;58975;51.978;8.472;2023-12-14T03:52:28;99902.84;;;3.14;100.00
4858;BME280;58975;51.978;8.472;2023-12-14T03:57:27;99899.75;;;3.07;100.00
4858;BME280;58975;51.978;8.472;2023-12-14T04:02:24;99913.31;;;3.15;100.00
4858;BME280;58975;51.978;8.472;2023-12-14T04:07:21;99909.66;;;3.02;100.00
4858;BME280;58975;51.978;8.472;2023-12-14T04:12:17;99908.16;;;2.98;100.00
4858;BME280;58975;51.978;8.472;2023-12-14T04:17:14;99919.28;;;3.03;100.00
4858;BME280;58975;51.978;8.472;2023-12-14T04:22:11;99936.69;;;3.06;100.00
4858;BME280;58975;51.978;8.472;2023-12-14T04:27:07;99951.19;;;2.97;100.00
4858;BME280;58975;51.978;8.472;2023-12-14T04:32:04;99960.38;;;2.90;100.00
4858;BME280;58975;51.978;8.472;2023-12-14T04:37:01;99965.09;;;2.83;100.00
4858;BME280;58975;51.978;8.472;2023-12-14T04:41:57;99964.25;;;2.83;100.00
4858;BME280;58975;51.978;8.472;2023-12-14T04:46:54;99976.47;;;2.84;100.00
4858;BME280;58975;51.978;8.472;2023-12-14T04:51:50;99974.63;;;2.86;100.00
4858;BME280;58975;51.978;8.472;2023-12-14T04:56:47;99983.84;;;2.93;100.00
4858;BME280;58975;51.978;8.472;2023-12-14T05:01:43;99988.44;;;2.90;100.00
4858;BME280;58975;51.978;8.472;2023-12-14T05:06:41;99994.88;;;2.84;100.00
4858;BME280;58975;51.978;8.472;2023-12-14T05:11:39;100011.44;;;2.86;100.00
4858;BME280;58975;51.978;8.472;2023-12-14T05:16:35;100013.91;;;2.89;100.00
4858;BME280;58975;51.978;8.472;2023-12-14T05:21:32;100019.03;;;2.91;100.00
4858;BME280;58975;51.978;8.472;2023-12-14T05:26:28;100032.72;;;2.97;100.00
4858;BME280;58975;51.978;8.472;2023-12-14T05:31:25;100035.59;;;2.93;100.00
4858;BME280;58975;51.978;8.472;2023-12-14T05:36:21;100033.84;;;2.93;100.00
4858;BME280;58975;51.978;8.472;2023-12-14T05:41:18;100042.66;;;2.92;100.00
4858;BME280;58975;51.978;8.472;2023-12-14T05:46:21;100053.34;;;2.89;100.00
4858;BME280;58975;51.978;8.472;2023-12-14T05:51:31;100058.25;;;2.79;100.00
4858;BME280;58975;51.978;8.472;2023-12-14T05:56:28;100073.84;;;2.82;100.00
4858;BME280;58975;51.978;8.472;2023-12-14T06:01:24;100068.34;;;2.87;100.00
4858;BME280;58975;51.978;8.472;2023-12-14T06:06:21;100068.28;;;2.89;100.00
4858;BME280;58975;51.978;8.472;2023-12-14T06:11:18;100074.38;;;2.89;100.00
4858;BME280;58975;51.978;8.472;2023-12-14T06:16:16;100077.09;;;2.88;100.00
4858;BME280;58975;51.978;8.472;2023-12-14T06:21:12;100082.00;;;2.78;100.00
4858;BME280;58975;51.978;8.472;2023-12-14T06:26:09;100078.28;;;2.82;100.00
4858;BME280;58975;51.978;8.472;2023-12-14T06:31:12;100076.72;;;2.62;100.00
4858;BME280;58975;51.978;8.472;2023-12-14T06:36:08;100092.63;;;2.59;100.00
4858;BME280;58975;51.978;8.472;2023-12-14T06:41:05;100104.00;;;2.60;100.00
4858;BME280;58975;51.978;8.472;2023-12-14T06:46:02;100109.69;;;2.68;100.00
4858;BME280;58975;51.978;8.472;2023-12-14T06:50:58;100112.16;;;2.71;100.00
4858;BME280;58975;51.978;8.472;2023-12-14T06:55:54;100126.03;;;2.74;100.00
4858;BME280;58975;51.978;8.472;2023-12-14T07:00:51;100129.44;;;2.59;100.00
4858;BME280;58975;51.978;8.472;2023-12-14T07:05:47;100135.88;;;2.54;100.00
4858;BME280;58975;51.978;8.472;2023-12-14T07:10:43;100144.38;;;2.59;100.00
4858;BME280;58975;51.978;8.472;2023-12-14T07:15:40;100158.63;;;2.55;100.00
4858;BME280;58975;51.978;8.472;2023-12-14T07:20:37;100168.97;;;2.58;100.00
4858;BME280;58975;51.978;8.472;2023-12-14T07:25:34;100180.63;;;2.52;100.00
4858;BME280;58975;51.978;8.472;2023-12-14T07:30:30;100203.59;;;2.49;100.00
4858;BME280;58975;51.978;8.472;2023-12-14T07:35:27;100215.03;;;2.48;100.00
4858;BME280;58975;51.978;8.472;2023-12-14T07:40:23;100212.41;;;2.48;100.00
4858;BME280;58975;51.978;8.472;2023-12-14T07:45:20;100223.69;;;2.50;100.00
4858;BME280;58975;51.978;8.472;2023-12-14T07:50:16;100227.25;;;2.49;100.00
4858;BME280;58975;51.978;8.472;2023-12-14T07:55:13;100235.19;;;2.47;100.00
4858;BME280;58975;51.978;8.472;2023-12-14T08:00:10;100247.13;;;2.54;100.00
4858;BME280;58975;51.978;8.472;2023-12-14T08:05:07;100250.69;;;2.53;100.00
4858;BME280;58975;51.978;8.472;2023-12-14T08:10:04;100255.63;;;2.59;100.00
4858;BME280;58975;51.978;8.472;2023-12-14T08:15:01;100268.75;;;2.42;100.00
4858;BME280;58975;51.978;8.472;2023-12-14T08:19:57;100283.25;;;2.32;100.00
4858;BME280;58975;51.978;8.472;2023-12-14T08:24:54;100294.84;;;2.28;100.00
4858;BME280;58975;51.978;8.472;2023-12-14T08:29:50;100307.13;;;2.27;100.00
4858;BME280;58975;51.978;8.472;2023-12-14T08:34:46;100312.53;;;2.24;100.00
4858;BME280;58975;51.978;8.472;2023-12-14T08:39:43;100316.81;;;2.27;100.00
4858;BME280;58975;51.978;8.472;2023-12-14T08:44:40;100325.44;;;2.29;100.00
4858;BME280;58975;51.978;8.472;2023-12-14T08:49:36;100329.59;;;2.34;100.00
4858;BME280;58975;51.978;8.472;2023-12-14T08:54:33;100323.84;;;2.44;100.00
4858;BME280;58975;51.978;8.472;2023-12-14T08:59:29;100329.22;;;2.42;100.00
4858;BME280;58975;51.978;8.472;2023-12-14T09:04:26;100348.16;;;2.49;100.00
4858;BME280;58975;51.978;8.472;2023-12-14T09:09:22;100355.28;;;2.47;100.00
4858;BME280;58975;51.978;8.472;2023-12-14T09:14:19;100357.09;;;2.45;100.00
4858;BME280;58975;51.978;8.472;2023-12-14T09:19:16;100367.47;;;2.48;100.00
4858;BME280;58975;51.978;8.472;2023-12-14T09:24:15;100375.34;;;2.48;100.00
4858;BME280;58975;51.978;8.472;2023-12-14T09:29:12;100389.63;;;2.61;100.00
4858;BME280;58975;51.978;8.472;2023-12-14T09:34:11;100391.34;;;2.62;100.00
4858;BME280;58975;51.978;8.472;2023-12-14T09:39:08;100393.00;;;2.46;100.00
4858;BME280;58975;51.978;8.472;2023-12-14T09:44:08;100401.22;;;2.57;100.00
4858;BME280;58975;51.978;8.472;2023-12-14T09:49:05;100402.28;;;2.53;100.00
4858;BME280;58975;51.978;8.472;2023-12-14T09:54:04;100430.28;;;2.54;100.00
4858;BME280;58975;51.978;8.472;2023-12-14T09:59:01;100433.81;;;2.53;100.00
4858;BME280;58975;51.978;8.472;2023-12-14T10:04:25;100447.47;;;2.61;100.00
4858;BME280;58975;51.978;8.472;2023-12-14T10:09:24;100453.03;;;2.55;100.00
4858;BME280;58975;51.978;8.472;2023-12-14T10:14:23;100464.59;;;2.51;100.00
4858;BME280;58975;51.978;8.472;2023-12-14T10:19:21;100476.03;;;2.50;100.00
4858;BME280;58975;51.978;8.472;2023-12-14T10:24:17;100477.25;;;2.61;100.00
4858;BME280;58975;51.978;8.472;2023-12-14T10:29:16;100474.03;;;2.73;100.00
4858;BME280;58975;51.978;8.472;2023-12-14T10:34:12;100476.31;;;2.81;100.00
4858;BME280;58975;51.978;8.472;2023-12-14T10:39:10;100468.06;;;2.70;100.00
4858;BME280;58975;51.978;8.472;2023-12-14T10:44:10;100479.91;;;2.78;100.00
4858;BME280;58975;51.978;8.472;2023-12-14T10:49:28;100476.22;;;2.82;100.00
4858;BME280;58975;51.978;8.472;2023-12-14T10:54:26;100489.31;;;2.84;100.00
4858;BME280;58975;51.978;8.472;2023-12-14T10:59:26;100495.47;;;3.02;100.00
4858;BME280;58975;51.978;8.472;2023-12-14T11:04:22;100496.47;;;2.99;100.00
4858;BME280;58975;51.978;8.472;2023-12-14T11:09:22;100499.66;;;3.06;100.00
4858;BME280;58975;51.978;8.472;2023-12-14T11:14:19;100507.81;;;3.18;100.00
4858;BME280;58975;51.978;8.472;2023-12-14T11:19:24;100512.19;;;3.37;100.00
4858;BME280;58975;51.978;8.472;2023-12-14T11:24:21;100516.50;;;3.20;100.00
4858;BME280;58975;51.978;8.472;2023-12-14T11:29:18;100523.75;;;3.15;100.00
4858;BME280;58975;51.978;8.472;2023-12-14T11:34:15;100528.41;;;3.27;100.00
4858;BME280;58975;51.978;8.472;2023-12-14T11:39:13;100538.16;;;3.25;100.00
4858;BME280;58975;51.978;8.472;2023-12-14T11:44:22;100533.25;;;3.37;100.00
4858;BME280;58975;51.978;8.472;2023-12-14T11:49:18;100530.41;;;3.22;100.00
4858;BME280;58975;51.978;8.472;2023-12-14T11:54:15;100535.97;;;3.16;100.00
4858;BME280;58975;51.978;8.472;2023-12-14T11:59:12;100556.94;;;3.18;100.00
4858;BME280;58975;51.978;8.472;2023-12-14T12:04:09;100558.28;;;3.26;100.00
4858;BME280;58975;51.978;8.472;2023-12-14T12:09:06;100557.31;;;3.29;100.00
4858;BME280;58975;51.978;8.472;2023-12-14T12:14:06;100569.41;;;3.33;100.00
4858;BME280;58975;51.978;8.472;2023-12-14T12:19:03;100567.75;;;3.30;100.00
4858;BME280;58975;51.978;8.472;2023-12-14T12:24:00;100574.28;;;3.41;100.00
4858;BME280;58975;51.978;8.472;2023-12-14T12:28:57;100572.75;;;3.54;100.00
4858;BME280;58975;51.978;8.472;2023-12-14T12:33:54;100563.94;;;3.55;100.00
4858;BME280;58975;51.978;8.472;2023-12-14T12:38:50;100577.84;;;3.57;100.00
4858;BME280;58975;51.978;8.472;2023-12-14T12:43:47;100572.91;;;3.51;100.00
4858;BME280;58975;51.978;8.472;2023-12-14T12:48:43;100572.94;;;3.68;100.00
4858;BME280;58975;51.978;8.472;2023-12-14T12:53:40;100565.59;;;3.74;100.00
4858;BME280;58975;51.978;8.472;2023-12-14T12:58:37;100570.91;;;3.73;100.00
4858;BME280;58975;51.978;8.472;2023-12-14T13:03:33;100576.25;;;3.54;100.00
4858;BME280;58975;51.978;8.472;2023-12-14T13:08:30;100582.63;;;3.67;100.00
4858;BME280;58975;51.978;8.472;2023-12-14T13:13:27;100585.25;;;3.67;100.00
4858;BME280;58975;51.978;8.472;2023-12-14T13:18:23;100592.41;;;3.83;100.00
4858;BME280;58975;51.978;8.472;2023-12-14T13:23:20;100599.00;;;3.91;100.00
4858;BME280;58975;51.978;8.472;2023-12-14T13:28:16;100605.72;;;3.79;100.00
4858;BME280;58975;51.978;8.472;2023-12-14T13:33:13;100620.63;;;3.62;100.00
4858;BME280;58975;51.978;8.472;2023-12-14T13:38:10;100622.28;;;3.64;100.00
4858;BME280;58975;51.978;8.472;2023-12-14T13:43:06;100636.22;;;3.66;100.00
4858;BME280;58975;51.978;8.472;2023-12-14T13:48:07;100646.69;;;3.68;100.00
4858;BME280;58975;51.978;8.472;2023-12-14T13:53:04;100659.84;;;3.68;100.00
4858;BME280;58975;51.978;8.472;2023-12-14T13:58:01;100672.22;;;3.66;100.00
4858;BME280;58975;51.978;8.472;2023-12-14T14:02:58;100680.13;;;3.66;100.00
4858;BME280;58975;51.978;8.472;2023-12-14T14:07:55;100700.44;;;3.64;100.00
4858;BME280;58975;51.978;8.472;2023-12-14T14:12:52;100704.75;;;3.65;100.00
4858;BME280;58975;51.978;8.472;2023-12-14T14:17:49;100704.13;;;3.60;100.00
4858;BME280;58975;51.978;8.472;2023-12-14T14:22:48;100725.31;;;3.57;100.00
4858;BME280;58975;51.978;8.472;2023-12-14T14:27:45;100731.75;;;3.51;100.00
4858;BME280;58975;51.978;8.472;2023-12-14T14:32:43;100755.38;;;3.53;100.00
4858;BME280;58975;51.978;8.472;2023-12-14T14:37:39;100757.06;;;3.54;100.00
4858;BME280;58975;51.978;8.472;2023-12-14T14:42:43;100767.34;;;3.60;100.00
4858;BME280;58975;51.978;8.472;2023-12-14T14:47:40;100765.63;;;3.59;100.00
4858;BME280;58975;51.978;8.472;2023-12-14T14:52:38;100779.69;;;3.58;100.00
4858;BME280;58975;51.978;8.472;2023-12-14T14:57:35;100780.78;;;3.54;100.00
4858;BME280;58975;51.978;8.472;2023-12-14T15:02:31;100791.25;;;3.55;100.00
4858;BME280;58975;51.978;8.472;2023-12-14T15:07:28;100796.66;;;3.52;100.00
4858;BME280;58975;51.978;8.472;2023-12-14T15:12:26;100806.31;;;3.52;100.00
4858;BME280;58975;51.978;8.472;2023-12-14T15:17:23;100820.22;;;3.55;100.00
4858;BME280;58975;51.978;8.472;2023-12-14T15:22:19;100823.75;;;3.54;100.00
4858;BME280;58975;51.978;8.472;2023-12-14T15:27:16;100830.81;;;3.54;100.00
4858;BME280;58975;51.978;8.472;2023-12-14T15:32:12;100837.97;;;3.50;100.00
4858;BME280;58975;51.978;8.472;2023-12-14T15:37:11;100845.88;;;3.50;100.00
4858;BME280;58975;51.978;8.472;2023-12-14T15:42:07;100844.16;;;3.49;100.00
4858;BME280;58975;51.978;8.472;2023-12-14T15:47:04;100857.41;;;3.48;100.00
4858;BME280;58975;51.978;8.472;2023-12-14T15:52:01;100863.66;;;3.45;100.00
4858;BME280;58975;51.978;8.472;2023-12-14T15:56:57;100869.78;;;3.46;100.00
4858;BME280;58975;51.978;8.472;2023-12-14T16:01:54;100870.84;;;3.42;100.00
4858;BME280;58975;51.978;8.472;2023-12-14T16:06:51;100875.31;;;3.40;100.00
4858;BME280;58975;51.978;8.472;2023-12-14T16:11:47;100884.13;;;3.39;100.00
4858;BME280;58975;51.978;8.472;2023-12-14T16:16:44;100897.25;;;3.40;100.00
4858;BME280;58975;51.978;8.472;2023-12-14T16:21:40;100900.78;;;3.39;100.00
4858;BME280;58975;51.978;8.472;2023-12-14T16:26:37;100902.50;;;3.40;100.00
4858;BME280;58975;51.978;8.472;2023-12-14T16:31:41;100914.63;;;3.44;100.00
4858;BME280;58975;51.978;8.472;2023-12-14T16:36:38;100917.78;;;3.52;100.00
4858;BME280;58975;51.978;8.472;2023-12-14T16:41:35;100933.69;;;3.49;100.00
4858;BME280;58975;51.978;8.472;2023-12-14T16:46:31;100953.31;;;3.42;100.00
4858;BME280;58975;51.978;8.472;2023-12-14T16:51:28;100954.50;;;3.35;100.00
4858;BME280;58975;51.978;8.472;2023-12-14T16:56:28;100960.66;;;3.34;100.00
4858;BME280;58975;51.978;8.472;2023-12-14T17:01:26;100962.38;;;3.35;100.00
4858;BME280;58975;51.978;8.472;2023-12-14T17:06:22;100978.22;;;3.33;100.00
4858;BME280;58975;51.978;8.472;2023-12-14T17:11:19;100994.03;;;3.33;100.00
4858;BME280;58975;51.978;8.472;2023-12-14T17:16:18;100988.72;;;3.35;100.00
4858;BME280;58975;51.978;8.472;2023-12-14T17:21:20;101001.81;;;3.37;100.00
4858;BME280;58975;51.978;8.472;2023-12-14T17:26:17;100997.44;;;3.37;100.00
4858;BME280;58975;51.978;8.472;2023-12-14T17:31:15;101000.88;;;3.38;100.00
4858;BME280;58975;51.978;8.472;2023-12-14T17:36:12;101016.56;;;3.41;100.00
4858;BME280;58975;51.978;8.472;2023-12-14T17:41:09;101017.63;;;3.37;100.00
4858;BME280;58975;51.978;8.472;2023-12-14T17:46:07;101038.78;;;3.33;100.00
4858;BME280;58975;51.978;8.472;2023-12-14T17:51:03;101053.84;;;3.30;100.00
4858;BME280;58975;51.978;8.472;2023-12-14T17:56:00;101048.53;;;3.31;100.00
4858;BME280;58975;51.978;8.472;2023-12-14T18:00:56;101053.84;;;3.30;100.00
4858;BME280;58975;51.978;8.472;2023-12-14T18:05:53;101054.78;;;3.29;100.00
4858;BME280;58975;51.978;8.472;2023-12-14T18:10:49;101063.59;;;3.28;100.00
4858;BME280;58975;51.978;8.472;2023-12-14T18:15:46;101082.03;;;3.28;100.00
4858;BME280;58975;51.978;8.472;2023-12-14T18:20:42;101083.84;;;3.26;100.00
4858;BME280;58975;51.978;8.472;2023-12-14T18:25:39;101096.06;;;3.28;100.00
4858;BME280;58975;51.978;8.472;2023-12-14T18:30:36;101093.50;;;3.25;100.00
4858;BME280;58975;51.978;8.472;2023-12-14T18:35:32;101094.44;;;3.24;100.00
4858;BME280;58975;51.978;8.472;2023-12-14T18:40:29;101107.75;;;3.21;100.00
4858;BME280;58975;51.978;8.472;2023-12-14T18:45:25;101115.69;;;3.20;100.00
4858;BME280;58975;51.978;8.472;2023-12-14T18:50:22;101122.75;;;3.18;100.00
4858;BME280;58975;51.978;8.472;2023-12-14T18:55:18;101129.03;;;3.15;100.00
4858;BME280;58975;51.978;8.472;2023-12-14T19:00:15;101138.63;;;3.16;100.00
4858;BME280;58975;51.978;8.472;2023-12-14T19:05:12;101143.00;;;3.17;100.00
4858;BME280;58975;51.978;8.472;2023-12-14T19:10:09;101149.16;;;3.16;100.00
4858;BME280;58975;51.978;8.472;2023-12-14T19:15:06;101153.59;;;3.14;100.00
4858;BME280;58975;51.978;8.472;2023-12-14T19:20:08;101149.34;;;3.12;100.00
4858;BME280;58975;51.978;8.472;2023-12-14T19:25:08;101168.66;;;3.11;100.00
4858;BME280;58975;51.978;8.472;2023-12-14T19:30:08;101174.91;;;3.08;100.00
4858;BME280;58975;51.978;8.472;2023-12-14T19:35:05;101175.03;;;3.05;100.00
4858;BME280;58975;51.978;8.472;2023-12-14T19:40:02;101184.75;;;3.03;100.00
4858;BME280;58975;51.978;8.472;2023-12-14T19:45:00;101182.19;;;3.02;100.00
4858;BME280;58975;51.978;8.472;2023-12-14T19:49:56;101191.16;;;2.96;100.00
4858;BME280;58975;51.978;8.472;2023-12-14T19:54:56;101195.59;;;2.94;100.00
4858;BME280;58975;51.978;8.472;2023-12-14T19:59:53;101197.44;;;2.92;100.00
4858;BME280;58975;51.978;8.472;2023-12-14T20:04:50;101193.19;;;2.88;100.00
4858;BME280;58975;51.978;8.472;2023-12-14T20:09:46;101201.25;;;2.83;100.00
4858;BME280;58975;51.978;8.472;2023-12-14T20:14:56;101215.50;;;2.78;100.00
4858;BME280;58975;51.978;8.472;2023-12-14T20:19:52;101219.03;;;2.77;100.00
4858;BME280;58975;51.978;8.472;2023-12-14T20:24:49;101228.72;;;2.75;100.00
4858;BME280;58975;51.978;8.472;2023-12-14T20:29:46;101222.72;;;2.71;100.00
4858;BME280;58975;51.978;8.472;2023-12-14T20:34:42;101235.72;;;2.76;100.00
4858;BME280;58975;51.978;8.472;2023-12-14T20:39:38;101243.84;;;2.70;100.00
4858;BME280;58975;51.978;8.472;2023-12-14T20:44:35;101254.44;;;2.67;100.00
4858;BME280;58975;51.978;8.472;2023-12-14T20:49:31;101262.31;;;2.67;100.00
4858;BME280;58975;51.978;8.472;2023-12-14T20:54:28;101264.97;;;2.67;100.00
4858;BME280;58975;51.978;8.472;2023-12-14T20:59:24;101267.69;;;2.64;100.00
4858;BME280;58975;51.978;8.472;2023-12-14T21:04:21;101272.16;;;2.62;100.00
4858;BME280;58975;51.978;8.472;2023-12-14T21:09:17;101278.44;;;2.58;100.00
4858;BME280;58975;51.978;8.472;2023-12-14T21:14:15;101290.84;;;2.54;100.00
4858;BME280;58975;51.978;8.472;2023-12-14T21:19:12;101294.41;;;2.52;100.00
4858;BME280;58975;51.978;8.472;2023-12-14T21:24:09;101308.38;;;2.54;100.00
4858;BME280;58975;51.978;8.472;2023-12-14T21:29:05;101310.03;;;2.56;100.00
4858;BME280;58975;51.978;8.472;2023-12-14T21:34:02;101315.16;;;2.61;100.00
4858;BME280;58975;51.978;8.472;2023-12-14T21:38:59;101317.75;;;2.62;100.00
4858;BME280;58975;51.978;8.472;2023-12-14T21:43:55;101320.03;;;2.71;100.00
4858;BME280;58975;51.978;8.472;2023-12-14T21:48:52;101319.09;;;2.99;100.00
4858;BME280;58975;51.978;8.472;2023-12-14T21:53:50;101323.00;;;2.87;100.00
4858;BME280;58975;51.978;8.472;2023-12-14T21:58:46;101336.44;;;2.79;100.00
4858;BME280;58975;51.978;8.472;2023-12-14T22:03:43;101346.31;;;2.73;100.00
4858;BME280;58975;51.978;8.472;2023-12-14T22:08:39;101350.81;;;2.69;100.00
4858;BME280;58975;51.978;8.472;2023-12-14T22:13:36;101349.13;;;2.67;100.00
4858;BME280;58975;51.978;8.472;2023-12-14T22:18:32;101357.00;;;2.67;100.00
4858;BME280;58975;51.978;8.472;2023-12-14T22:23:29;101369.38;;;2.65;100.00
4858;BME280;58975;51.978;8.472;2023-12-14T22:28:25;101364.09;;;2.65;100.00
4858;BME280;58975;51.978;8.472;2023-12-14T22:33:22;101370.25;;;2.64;100.00
4858;BME280;58975;51.978;8.472;2023-12-14T22:38:19;101381.59;;;2.66;100.00
4858;BME280;58975;51.978;8.472;2023-12-14T22:43:16;101372.03;;;2.63;100.00
4858;BME280;58975;51.978;8.472;2023-12-14T22:48:14;101385.72;;;2.74;100.00
4858;BME280;58975;51.978;8.472;2023-12-14T22:53:10;101388.28;;;2.76;100.00
4858;BME280;58975;51.978;8.472;2023-12-14T22:58:19;101399.75;;;2.73;100.00
4858;BME280;58975;51.978;8.472;2023-12-14T23:03:15;101399.91;;;2.69;100.00
4858;BME280;58975;51.978;8.472;2023-12-14T23:08:12;101398.91;;;2.73;100.00
4858;BME280;58975;51.978;8.472;2023-12-14T23:13:08;101410.28;;;2.73;100.00
4858;BME280;58975;51.978;8.472;2023-12-14T23:18:05;101421.47;;;2.80;100.00
4858;BME280;58975;51.978;8.472;2023-12-14T23:23:02;101421.06;;;2.92;100.00
4858;BME280;58975;51.978;8.472;2023-12-14T23:27:58;101421.47;;;3.06;100.00
4858;BME280;58975;51.978;8.472;2023-12-14T23:32:55;101430.22;;;3.07;100.00
4858;BME280;58975;51.978;8.472;2023-12-14T23:37:51;101425.16;;;3.01;100.00
4858;BME280;58975;51.978;8.472;2023-12-14T23:42:48;101425.22;;;2.99;100.00
4858;BME280;58975;51.978;8.472;2023-12-14T23:47:44;101430.72;;;2.92;100.00
4858;BME280;58975;51.978;8.472;2023-12-14T23:52:41;101424.41;;;2.97;100.00
4858;BME280;58975;51.978;8.472;2023-12-14T23:57:37;101427.53;;;3.08;100.00
